Walton, Indiana
Current Conditions -  °F | °C
As of 4:58 PM on Friday 24 Oct 2014 (Local Time) from KGUS Reporting Station
Clear Clear  
Wind Chill: 65°   Ceiling: Unl
Heat Index: 65°   Visibility: 10mi
Dew Point: 56°   Wind: 9mph
Humidity: 74%   Direction: 260°W
Pressure: 29.99"   Gusts: NA
Location:  40.66°N, 86.24°W
Report Text: KGUS 242058Z AUTO 26008KT 10SM CLR 18/14 A2999 RMK AO2 SLP159 T01840136 56016
Loading
Personal Weather Stations






























Interactive Weather Map
Tropical Storm Tracking
New forecast layout! Learn more

10-Day Weather Forecast

Advertisements
Track Severe Weather on mobile